< < Back
Terminal Aerodrome Forecast


Current Version              Previous Versions:   1  2  3  4  5  6  7  8  9  

Terminal Aerodrome Forecast

012
FTUS42 KFFC 040520
TAFCSG
TAF
KCSG 040520Z 0406/0506 00000KT P6SM BKN100
     FM041400 32003KT P6SM FEW250
     FM041700 26005KT P6SM SCT050
     FM050200 00000KT P6SM FEW080 FEW250=



Latest METAR

182
SAUS70 KWBC 050300
MTRCSG
METAR KCSG 050251Z AUTO 23006KT 10SM CLR 29/21 A3001 RMK AO2 SLP156
T02890211 53023


USA.gov is the U.S. government's official web portal to all federal, state and local government web resources and services.